Time;durP1;ratioP1;P1;durP2;ratioP2;P2;SDS_P1;SDS_P2;PMS_P1;PMS_P2;Temp;Humidity;BMP_temperature;BMP_pressure;BME280_temperature;BME280_humidity;BME280_pressure;Samples;Min_cycle;Max_cycle;Signal;HPM_P1;HPM_P2
2023/08/17 04:01:11;;;;;;;0.60;0.10;;;20.00;1.00;;;;;;5625683;23;20501;-73
2023/08/17 04:03:40;;;;;;;0.60;0.10;;;20.00;1.00;;;;;;4955611;28;20445;-73
2023/08/17 04:06:10;;;;;;;0.60;0.10;;;19.80;1.00;;;;;;4955072;29;20469;-72
2023/08/17 04:08:38;;;;;;;0.60;0.10;;;19.80;1.00;;;;;;4955386;29;20445;-72
2023/08/17 04:11:06;;;;;;;0.60;0.10;;;19.70;1.00;;;;;;4955855;28;20509;-74
2023/08/17 04:13:34;;;;;;;0.60;0.10;;;19.80;1.00;;;;;;4957640;29;20452;-73
2023/08/17 04:16:02;;;;;;;0.60;0.10;;;21.20;1.00;;;;;;4957133;29;20469;-74
2023/08/17 04:18:31;;;;;;;0.60;0.17;;;;;;;;;;4957055;29;20450;-73
2023/08/17 04:20:59;;;;;;;0.87;0.40;;;19.80;1.00;;;;;;4956578;28;20497;-72
2023/08/17 04:23:27;;;;;;;0.60;0.20;;;19.80;1.00;;;;;;4956633;29;20460;-74
2023/08/17 04:25:55;;;;;;;0.60;0.10;;;19.80;1.00;;;;;;4957908;29;20905;-74
2023/08/17 04:28:23;;;;;;;0.60;0.10;;;19.90;1.00;;;;;;4958598;29;20483;-74
2023/08/17 04:30:51;;;;;;;0.60;0.10;;;19.80;1.00;;;;;;4958377;28;20472;-74
2023/08/17 04:33:19;;;;;;;0.60;0.10;;;19.80;1.00;;;;;;4958167;29;20447;-74
2023/08/17 04:35:49;;;;;;;0.60;0.10;;;19.90;1.00;;;;;;4956590;29;20548;-73
2023/08/17 04:38:16;;;;;;;0.60;0.10;;;19.90;1.00;;;;;;4955423;29;20882;-73
2023/08/17 04:40:44;;;;;;;0.60;0.10;;;19.90;1.00;;;;;;4955133;28;20588;-73
2023/08/17 04:43:12;;;;;;;0.70;0.10;;;19.90;1.00;;;;;;4955151;29;20536;-73
2023/08/17 04:45:40;;;;;;;0.60;0.10;;;19.80;1.00;;;;;;4955003;29;20537;-72
2023/08/17 04:48:08;;;;;;;0.60;0.10;;;19.80;1.00;;;;;;4955114;29;20476;-74
2023/08/17 04:50:36;;;;;;;0.60;0.10;;;19.80;1.00;;;;;;4954790;28;20472;-74
2023/08/17 04:53:05;;;;;;;0.60;0.10;;;19.80;1.00;;;;;;4955305;29;20489;-73
2023/08/17 04:55:33;;;;;;;0.60;0.10;;;19.80;1.00;;;;;;4955173;29;20549;-73
2023/08/17 04:58:01;;;;;;;0.60;0.13;;;19.80;1.00;;;;;;4955359;28;20545;-73
2023/08/17 05:00:29;;;;;;;0.60;0.20;;;19.80;1.00;;;;;;4954724;28;21102;-73
2023/08/17 05:02:57;;;;;;;0.60;0.10;;;19.80;1.00;;;;;;4954773;29;20460;-71
2023/08/17 05:05:25;;;;;;;0.60;0.10;;;19.80;1.00;;;;;;4954354;29;20464;-75
2023/08/17 05:07:53;;;;;;;0.60;0.10;;;19.80;1.00;;;;;;4954189;29;20454;-74
2023/08/17 05:10:23;;;;;;;0.60;0.10;;;19.80;1.00;;;;;;4952572;28;20881;-74
2023/08/17 05:12:50;;;;;;;0.60;0.10;;;19.80;1.00;;;;;;4952856;29;20528;-75
2023/08/17 05:15:18;;;;;;;0.60;0.10;;;19.80;1.00;;;;;;4954417;29;20607;-75
2023/08/17 05:17:46;;;;;;;0.60;0.10;;;19.90;1.00;;;;;;4954224;29;20529;-74
2023/08/17 05:20:14;;;;;;;0.60;0.10;;;19.90;1.00;;;;;;4954127;28;20946;-74
2023/08/17 05:22:42;;;;;;;0.60;0.10;;;19.90;1.00;;;;;;4954290;29;20488;-72
2023/08/17 05:25:10;;;;;;;0.60;0.10;;;20.00;1.00;;;;;;4954738;29;20460;-73
2023/08/17 05:27:39;;;;;;;0.60;0.10;;;20.00;1.00;;;;;;4954512;29;20480;-73
2023/08/17 05:30:08;;;;;;;0.60;0.10;;;19.90;1.00;;;;;;4954153;29;20457;-69
2023/08/17 05:32:36;;;;;;;0.60;0.10;;;19.90;1.00;;;;;;4953367;28;21200;-71
2023/08/17 05:35:05;;;;;;;0.60;0.10;;;20.00;1.00;;;;;;4951896;29;20453;-70
2023/08/17 05:37:32;;;;;;;1.10;0.67;;;20.00;1.00;;;;;;4953220;28;20451;-70
2023/08/17 05:40:00;;;;;;;0.60;0.10;;;20.10;1.00;;;;;;4952412;29;20552;-70
2023/08/17 05:42:28;;;;;;;0.60;0.10;;;20.00;1.00;;;;;;4952292;28;20850;-69
2023/08/17 05:44:57;;;;;;;0.60;0.20;;;20.00;1.00;;;;;;4951706;29;20471;-72
2023/08/17 05:47:25;;;;;;;0.70;0.37;;;20.00;1.00;;;;;;4952159;29;20449;-70
2023/08/17 05:49:53;;;;;;;0.60;0.10;;;19.90;1.00;;;;;;4953982;29;20512;-71
2023/08/17 05:52:21;;;;;;;0.60;0.27;;;19.90;1.00;;;;;;4953896;28;20500;-69
2023/08/17 05:54:49;;;;;;;0.60;0.20;;;19.80;1.00;;;;;;4953333;29;20460;-69
2023/08/17 05:57:17;;;;;;;0.60;0.10;;;19.80;1.00;;;;;;4953906;29;20826;-69
2023/08/17 05:59:45;;;;;;;0.60;0.20;;;19.90;1.00;;;;;;4954173;29;20548;-71
2023/08/17 06:02:14;;;;;;;0.60;0.20;;;19.90;1.00;;;;;;4953983;28;20589;-70
2023/08/17 06:04:42;;;;;;;0.60;0.10;;;18.30;1.00;;;;;;4954690;29;20541;-71
2023/08/17 06:07:10;;;;;;;0.60;0.10;;;20.00;1.00;;;;;;4956643;29;20488;-70
2023/08/17 06:09:37;;;;;;;0.60;0.10;;;20.00;1.00;;;;;;4957471;29;20853;-72
2023/08/17 06:12:06;;;;;;;0.60;0.10;;;19.90;1.00;;;;;;4959135;28;21007;-71
2023/08/17 06:14:35;;;;;;;1.00;0.30;;;19.90;1.00;;;;;;4958912;29;20540;-70
2023/08/17 06:17:03;;;;;;;0.60;0.10;;;19.90;1.00;;;;;;4960109;29;20459;-71
2023/08/17 06:19:32;;;;;;;0.60;0.10;;;19.80;1.00;;;;;;4958711;29;20453;-72
2023/08/17 06:21:59;;;;;;;0.60;0.20;;;19.80;1.00;;;;;;4962896;28;20578;-70
2023/08/17 06:24:27;;;;;;;0.60;0.10;;;19.80;1.00;;;;;;4966264;29;20452;-71
2023/08/17 06:26:55;;;;;;;0.60;0.10;;;19.80;1.00;;;;;;4965761;29;20456;-71
2023/08/17 06:29:23;;;;;;;0.60;0.10;;;19.80;1.00;;;;;;4963335;29;20450;-72
2023/08/17 06:31:51;;;;;;;0.60;0.10;;;19.80;1.00;;;;;;4968017;28;20473;-72
2023/08/17 06:34:19;;;;;;;0.60;0.10;;;19.80;1.00;;;;;;4955550;29;20544;-72
2023/08/17 06:36:59;;;;;;;0.60;0.10;;;19.80;1.00;;;;;;4954142;29;20891;-69
2023/08/17 06:39:27;;;;;;;0.70;0.30;;;19.90;1.00;;;;;;4953537;28;20547;-70
2023/08/17 06:41:55;;;;;;;0.60;0.10;;;19.90;1.00;;;;;;4954852;28;20520;-71
2023/08/17 06:44:23;;;;;;;0.80;0.60;;;19.90;1.00;;;;;;4953667;29;20855;-70
2023/08/17 06:46:51;;;;;;;1.10;0.20;;;19.70;1.00;;;;;;4953216;29;20492;-71
2023/08/17 06:49:18;;;;;;;0.70;0.60;;;19.80;1.00;;;;;;4953369;29;20942;-70
2023/08/17 06:51:46;;;;;;;1.13;0.30;;;19.80;1.00;;;;;;4954871;28;20477;-70
2023/08/17 06:54:16;;;;;;;0.60;0.10;;;19.80;1.00;;;;;;4957746;29;21034;-71
2023/08/17 06:56:43;;;;;;;0.80;0.70;;;19.80;1.00;;;;;;4954721;29;20499;-70
2023/08/17 06:59:12;;;;;;;0.60;0.10;;;;;;;;;;4954913;29;20447;-70
2023/08/17 07:01:40;;;;;;;0.70;0.30;;;19.90;1.00;;;;;;4952807;28;20503;-70
2023/08/17 07:04:08;;;;;;;0.60;0.10;;;20.00;1.00;;;;;;4953390;29;20442;-70
2023/08/17 07:06:36;;;;;;;1.70;1.60;;;20.00;1.00;;;;;;4952922;29;20448;-70
2023/08/17 07:09:04;;;;;;;0.60;0.10;;;20.00;1.00;;;;;;4953411;29;20512;-72
2023/08/17 07:11:34;;;;;;;0.60;0.10;;;20.00;1.00;;;;;;4953406;28;20476;-71
2023/08/17 07:14:02;;;;;;;0.60;0.10;;;20.00;1.00;;;;;;4953347;29;20547;-71
2023/08/17 07:16:29;;;;;;;0.60;0.20;;;20.10;1.00;;;;;;4953314;29;20456;-70
2023/08/17 07:18:57;;;;;;;0.60;0.10;;;20.20;1.00;;;;;;4953284;29;20453;-72
2023/08/17 07:21:26;;;;;;;0.60;0.10;;;20.40;1.00;;;;;;4953083;28;20683;-69
2023/08/17 07:23:55;;;;;;;0.60;0.10;;;20.40;1.00;;;;;;4957324;29;20533;-71
2023/08/17 07:26:23;;;;;;;0.60;0.10;;;20.50;1.00;;;;;;4957397;29;20545;-70
2023/08/17 07:28:52;;;;;;;0.60;0.10;;;20.70;1.00;;;;;;4957426;29;20500;-70
2023/08/17 07:31:20;;;;;;;0.60;0.20;;;20.70;1.00;;;;;;4956881;28;20502;-70
2023/08/17 07:33:48;;;;;;;0.60;0.10;;;20.70;1.00;;;;;;4957739;29;20458;-70
2023/08/17 07:36:16;;;;;;;0.60;0.10;;;20.70;1.00;;;;;;4957177;29;20543;-70
2023/08/17 07:38:44;;;;;;;0.70;0.40;;;20.70;1.00;;;;;;4958356;29;20458;-72
2023/08/17 07:41:12;;;;;;;0.60;0.10;;;20.70;1.00;;;;;;4958640;28;20559;-70
2023/08/17 07:43:39;;;;;;;0.60;0.10;;;20.70;1.00;;;;;;4959955;29;21096;-71
2023/08/17 07:46:09;;;;;;;0.60;0.10;;;20.70;1.00;;;;;;4959112;29;20545;-71
2023/08/17 07:48:37;;;;;;;0.60;0.13;;;20.70;1.00;;;;;;4957045;29;20465;-70
2023/08/17 07:51:05;;;;;;;0.80;0.47;;;20.70;1.00;;;;;;4957098;28;20471;-70
2023/08/17 07:53:33;;;;;;;0.60;0.20;;;20.70;1.00;;;;;;4957275;29;20450;-71
2023/08/17 07:56:00;;;;;;;0.60;0.10;;;20.70;1.00;;;;;;4956628;29;20523;-69
2023/08/17 07:58:28;;;;;;;0.60;0.20;;;20.70;1.00;;;;;;4956616;29;20497;-71
2023/08/17 08:00:56;;;;;;;0.60;0.20;;;20.80;1.00;;;;;;4956022;28;21058;-70
2023/08/17 08:03:25;;;;;;;0.60;0.10;;;20.90;1.00;;;;;;4956745;29;20481;-71
2023/08/17 08:05:53;;;;;;;0.60;0.10;;;20.90;1.00;;;;;;4956578;29;21034;-68
2023/08/17 08:08:21;;;;;;;0.60;0.10;;;21.00;1.00;;;;;;4956563;29;20453;-71
2023/08/17 08:10:49;;;;;;;0.60;0.20;;;21.10;1.00;;;;;;4957719;28;20470;-71
2023/08/17 08:13:17;;;;;;;0.60;0.20;;;21.10;1.00;;;;;;4956463;29;20561;-70
2023/08/17 08:15:45;;;;;;;0.60;0.10;;;21.10;1.00;;;;;;4950658;29;20944;-70
2023/08/17 08:18:13;;;;;;;0.60;0.23;;;21.20;1.00;;;;;;4959570;29;20869;-69
2023/08/17 08:20:42;;;;;;;0.60;0.10;;;21.20;1.00;;;;;;4958702;28;20536;-70
2023/08/17 08:23:11;;;;;;;0.60;0.20;;;21.20;1.00;;;;;;4958884;29;21060;-72
2023/08/17 08:25:39;;;;;;;0.70;0.40;;;21.20;1.00;;;;;;4958229;29;20445;-72
2023/08/17 08:28:08;;;;;;;0.60;0.10;;;22.70;1.00;;;;;;4957974;29;20549;-70
2023/08/17 08:30:36;;;;;;;0.60;0.17;;;21.40;1.00;;;;;;4960629;28;20481;-71
2023/08/17 08:33:04;;;;;;;0.60;0.20;;;21.50;1.00;;;;;;4957134;28;20538;-72
2023/08/17 08:35:35;;;;;;;0.60;0.20;;;21.50;1.00;;;;;;4957728;29;20540;-71
2023/08/17 08:38:05;;;;;;;0.60;0.10;;;21.60;1.00;;;;;;4955004;29;20942;-72
2023/08/17 08:40:33;;;;;;;0.60;0.10;;;21.80;1.00;;;;;;4954483;28;20513;-72
2023/08/17 08:43:01;;;;;;;0.60;0.10;;;21.90;1.00;;;;;;4954162;29;20573;-69
2023/08/17 08:45:31;;;;;;;0.60;0.10;;;22.00;1.00;;;;;;4954643;29;20497;-70
2023/08/17 08:48:01;;;;;;;0.60;0.10;;;22.00;1.00;;;;;;4955417;29;20442;-72
2023/08/17 08:50:32;;;;;;;0.60;0.10;;;22.10;1.00;;;;;;4955510;28;20442;-72
2023/08/17 08:53:03;;;;;;;0.60;0.10;;;22.20;99.90;;;;;;4955342;29;20449;-72
2023/08/17 08:55:37;;;;;;;0.60;0.23;;;22.20;1.00;;;;;;4954930;29;20450;-71
2023/08/17 08:58:12;;;;;;;0.60;0.10;;;22.20;99.90;;;;;;4954874;28;20461;-72
2023/08/17 09:00:41;;;;;;;0.60;0.10;;;22.30;99.90;;;;;;4955407;28;20513;-70
2023/08/17 09:03:10;;;;;;;0.60;0.20;;;22.20;99.90;;;;;;4954760;29;20497;-71
2023/08/17 09:05:39;;;;;;;0.60;0.10;;;22.20;99.90;;;;;;4954476;29;20529;-72
2023/08/17 09:08:11;;;;;;;0.60;0.10;;;22.20;99.90;;;;;;4954270;29;20477;-71
2023/08/17 09:10:45;;;;;;;0.60;0.10;;;22.20;99.90;;;;;;4955191;28;20470;-70
2023/08/17 09:13:12;;;;;;;0.60;0.10;;;22.30;99.90;;;;;;4954955;28;20540;-71
2023/08/17 09:15:40;;;;;;;0.60;0.10;;;22.30;99.90;;;;;;4956334;29;20497;-71
2023/08/17 09:18:08;;;;;;;0.60;0.10;;;22.30;99.90;;;;;;4954283;29;20447;-71
2023/08/17 09:20:41;;;;;;;0.60;0.10;;;22.40;99.90;;;;;;4954595;28;20493;-72
2023/08/17 09:23:15;;;;;;;0.60;0.10;;;22.60;99.90;;;;;;4954239;29;20490;-71
2023/08/17 09:25:46;;;;;;;0.60;0.20;;;22.70;99.90;;;;;;4953814;29;20446;-71
2023/08/17 09:28:17;;;;;;;0.60;0.20;;;22.70;99.90;;;;;;4953932;29;20518;-72
2023/08/17 09:30:53;;;;;;;0.60;0.10;;;22.70;99.90;;;;;;4954628;28;20494;-71
2023/08/17 09:33:22;;;;;;;0.60;0.10;;;22.60;99.90;;;;;;4953999;29;20442;-71
2023/08/17 09:35:50;;;;;;;0.60;0.10;;;22.60;99.90;;;;;;4953561;29;20489;-72
2023/08/17 09:38:18;;;;;;;0.60;0.10;;;22.70;99.90;;;;;;4953833;29;20538;-70
2023/08/17 09:40:48;;;;;;;0.93;0.93;;;22.70;99.90;;;;;;4953752;28;20519;-71
2023/08/17 09:43:17;;;;;;;0.60;0.10;;;22.70;99.90;;;;;;4954021;29;20474;-71
2023/08/17 09:45:47;;;;;;;0.60;0.10;;;22.70;99.90;;;;;;4953264;28;20451;-71
2023/08/17 09:48:17;;;;;;;0.60;0.10;;;22.70;99.90;;;;;;4953944;28;20446;-71
2023/08/17 09:50:45;;;;;;;0.60;0.10;;;22.80;99.90;;;;;;4953158;28;20975;-71
2023/08/17 09:53:14;;;;;;;0.60;0.10;;;22.70;99.90;;;;;;4953660;29;20995;-70
2023/08/17 09:55:43;;;;;;;0.60;0.10;;;22.90;99.90;;;;;;4953573;28;20523;-70
2023/08/17 09:58:14;;;;;;;0.60;0.13;;;23.00;99.90;;;;;;4953895;29;20450;-70
2023/08/17 10:00:45;;;;;;;0.60;0.10;;;23.30;99.90;;;;;;4954189;28;20470;-70
2023/08/17 10:03:18;;;;;;;0.60;0.10;;;23.30;99.90;;;;;;4954186;29;20485;-70
2023/08/17 10:05:55;;;;;;;0.60;0.10;;;23.40;99.90;;;;;;4953458;29;20936;-70
2023/08/17 10:08:24;;;;;;;0.60;0.10;;;23.60;99.90;;;;;;4955758;29;20781;-71
2023/08/17 10:10:53;;;;;;;0.60;0.10;;;23.60;99.90;;;;;;4954262;28;20463;-72
2023/08/17 10:16:03;;;;;;;0.60;0.30;;;23.50;99.90;;;;;;4950916;29;20467;-73
2023/08/17 10:18:38;;;;;;;0.60;0.10;;;23.50;99.90;;;;;;4952904;28;20442;-72
2023/08/17 10:21:10;;;;;;;0.60;0.17;;;23.50;99.90;;;;;;4953685;28;20485;-71
2023/08/17 10:23:39;;;;;;;0.60;0.17;;;23.50;99.90;;;;;;4953086;28;20554;-72
2023/08/17 10:26:10;;;;;;;0.60;0.20;;;23.60;99.90;;;;;;4953394;28;20516;-71
2023/08/17 10:28:39;;;;;;;0.60;0.10;;;23.70;99.90;;;;;;4953289;28;21116;-70
2023/08/17 10:31:10;;;;;;;0.60;0.20;;;23.60;99.90;;;;;;4953640;28;20465;-73
2023/08/17 10:33:41;;;;;;;0.60;0.10;;;23.90;99.90;;;;;;4953065;28;20990;-72
2023/08/17 10:36:10;;;;;;;0.60;0.10;;;24.00;99.90;;;;;;4952915;28;20541;-72
2023/08/17 10:38:38;;;;;;;0.60;0.10;;;24.10;99.90;;;;;;4953078;28;20493;-71
2023/08/17 10:41:10;;;;;;;0.60;0.10;;;24.20;99.90;;;;;;4953075;28;20530;-71
2023/08/17 10:43:57;;;;;;;0.60;0.20;;;24.20;99.90;;;;;;4953165;28;20493;-71
2023/08/17 10:46:39;;;;;;;0.60;0.20;;;24.20;99.90;;;;;;4952927;29;20556;-72
2023/08/17 10:49:24;;;;;;;0.60;0.10;;;24.20;99.90;;;;;;4953010;29;20493;-72
2023/08/17 10:52:01;;;;;;;0.60;0.10;;;24.30;99.90;;;;;;4952817;28;20527;-72
2023/08/17 10:54:37;;;;;;;0.60;0.10;;;24.30;99.90;;;;;;4952701;29;20553;-71
2023/08/17 10:57:32;;;;;;;0.60;0.10;;;24.40;99.90;;;;;;4955932;28;20545;-71
2023/08/17 11:00:17;;;;;;;0.60;0.10;;;24.30;99.90;;;;;;4956621;29;20478;-73
2023/08/17 11:02:58;;;;;;;0.60;0.10;;;24.30;99.90;;;;;;4956671;28;20442;-71
2023/08/17 11:05:41;;;;;;;1.47;1.37;;;24.20;99.90;;;;;;4956031;29;20528;-72
2023/08/17 11:08:10;;;;;;;0.60;0.10;;;24.20;99.90;;;;;;4956174;29;20894;-71
2023/08/17 11:10:39;;;;;;;0.60;0.10;;;24.20;99.90;;;;;;4956252;29;20599;-71
2023/08/17 11:13:07;;;;;;;0.60;0.10;;;24.30;99.90;;;;;;4957244;28;20444;-71
2023/08/17 11:15:39;;;;;;;0.60;0.10;;;24.30;99.90;;;;;;4956293;29;20963;-70
2023/08/17 11:18:09;;;;;;;0.60;0.20;;;24.40;99.90;;;;;;4957121;29;20446;-70
2023/08/17 11:20:39;;;;;;;0.60;0.10;;;24.50;99.90;;;;;;4956284;29;20457;-70
2023/08/17 11:23:08;;;;;;;0.60;0.10;;;24.70;99.90;;;;;;4956436;29;20462;-71
2023/08/17 11:25:37;;;;;;;0.67;0.20;;;24.80;99.90;;;;;;4956265;29;20494;-72
2023/08/17 11:28:08;;;;;;;0.60;0.20;;;24.90;99.90;;;;;;4956282;28;20570;-70
2023/08/17 11:30:38;;;;;;;0.60;0.10;;;;;;;;;;4956010;29;20450;-71
2023/08/17 11:33:08;;;;;;;0.60;0.10;;;24.90;99.90;;;;;;4955918;28;20553;-70
2023/08/17 11:35:36;;;;;;;0.70;0.30;;;;;;;;;;4955646;28;20453;-72
2023/08/17 11:38:05;;;;;;;0.60;0.10;;;25.20;99.90;;;;;;4956154;28;20453;-72
2023/08/17 11:40:36;;;;;;;0.60;0.10;;;25.20;99.90;;;;;;4955912;29;20481;-71
2023/08/17 11:43:05;;;;;;;0.70;0.10;;;25.20;99.90;;;;;;4955630;29;20949;-71
2023/08/17 11:45:33;;;;;;;0.70;0.10;;;25.20;99.90;;;;;;4955247;28;20879;-72
2023/08/17 11:48:03;;;;;;;0.70;0.40;;;25.10;99.90;;;;;;4956174;29;20533;-71
2023/08/17 11:50:32;;;;;;;0.60;0.10;;;25.10;99.90;;;;;;4956257;28;20530;-71
2023/08/17 11:53:06;;;;;;;0.60;0.20;;;25.20;99.90;;;;;;4955997;28;20461;-71
2023/08/17 11:55:34;;;;;;;0.70;0.10;;;25.20;99.90;;;;;;4955802;28;20522;-71
2023/08/17 11:58:03;;;;;;;0.70;0.20;;;25.10;99.90;;;;;;4958799;28;20478;-70
2023/08/17 12:00:41;;;;;;;0.70;0.10;;;25.10;99.90;;;;;;4960069;28;20453;-71
2023/08/17 12:03:09;;;;;;;0.80;0.23;;;25.20;99.90;;;;;;4956004;28;20932;-71
2023/08/17 12:05:39;;;;;;;0.70;0.10;;;25.20;99.90;;;;;;4955519;28;20561;-71
2023/08/17 12:08:09;;;;;;;0.60;0.10;;;25.40;99.90;;;;;;4954663;28;20447;-72
2023/08/17 12:10:38;;;;;;;0.70;0.20;;;25.40;99.90;;;;;;4955544;28;20447;-71
2023/08/17 12:13:12;;;;;;;0.70;0.20;;;25.50;99.90;;;;;;4955355;28;20488;-72
2023/08/17 12:15:40;;;;;;;0.67;0.13;;;25.50;99.90;;;;;;4955078;28;20510;-71
2023/08/17 12:18:08;;;;;;;0.70;0.20;;;25.60;99.90;;;;;;4955135;28;20454;-71
2023/08/17 12:20:36;;;;;;;0.60;0.10;;;25.60;99.90;;;;;;4955548;28;20822;-70
2023/08/17 12:23:06;;;;;;;0.67;0.10;;;25.60;99.90;;;;;;4955785;28;20451;-70
2023/08/17 12:25:34;;;;;;;0.70;0.10;;;25.60;99.90;;;;;;4954976;28;20581;-70
2023/08/17 12:28:03;;;;;;;0.70;0.20;;;25.60;99.90;;;;;;4955376;28;20882;-72
2023/08/17 12:30:32;;;;;;;0.70;0.10;;;25.50;99.90;;;;;;4955235;28;20442;-71
2023/08/17 12:33:00;;;;;;;0.70;0.20;;;25.50;99.90;;;;;;4955111;28;20978;-70
2023/08/17 12:35:28;;;;;;;0.63;0.10;;;25.60;99.90;;;;;;4954867;28;21030;-72
2023/08/17 12:37:56;;;;;;;0.70;0.20;;;25.60;99.90;;;;;;4954657;28;20567;-70
2023/08/17 12:40:26;;;;;;;0.70;0.10;;;25.60;99.90;;;;;;4955554;28;20534;-71
2023/08/17 12:42:54;;;;;;;0.70;0.10;;;25.70;99.90;;;;;;4954501;28;20450;-72
2023/08/17 12:45:22;;;;;;;0.60;0.17;;;25.70;99.90;;;;;;4954547;29;20906;-72
2023/08/17 12:47:54;;;;;;;0.63;0.10;;;25.70;99.90;;;;;;4954871;29;20538;-73
2023/08/17 12:50:22;;;;;;;0.70;0.17;;;25.80;99.90;;;;;;4954394;29;20453;-71
2023/08/17 12:52:51;;;;;;;0.67;0.10;;;;;;;;;;4954487;28;20486;-72
2023/08/17 12:55:19;;;;;;;0.70;0.10;;;;;;;;;;4954319;28;20494;-72
2023/08/17 12:57:48;;;;;;;0.63;0.10;;;25.80;99.90;;;;;;4954658;28;20550;-73
2023/08/17 13:00:17;;;;;;;0.70;0.10;;;25.80;99.90;;;;;;4954518;29;20485;-70
2023/08/17 13:02:46;;;;;;;0.70;0.13;;;25.80;99.90;;;;;;4954316;29;20878;-72
2023/08/17 13:05:14;;;;;;;0.70;0.10;;;26.00;99.90;;;;;;4953941;29;20574;-72
2023/08/17 13:07:42;;;;;;;0.70;0.10;;;26.00;99.90;;;;;;4954710;29;20455;-71
2023/08/17 13:10:10;;;;;;;0.67;0.10;;;26.10;99.90;;;;;;4954577;29;20486;-71
2023/08/17 13:12:38;;;;;;;0.60;0.10;;;26.20;99.90;;;;;;4954352;29;20803;-71
2023/08/17 13:15:08;;;;;;;0.70;0.10;;;26.20;99.90;;;;;;4953517;29;20564;-71
2023/08/17 13:17:36;;;;;;;0.67;0.10;;;26.20;99.90;;;;;;4953789;29;20443;-70
2023/08/17 13:20:06;;;;;;;0.70;0.13;;;26.20;99.90;;;;;;4952757;28;20506;-69
2023/08/17 13:22:33;;;;;;;0.70;0.20;;;26.20;99.90;;;;;;4954166;29;20439;-71
2023/08/17 13:25:01;;;;;;;0.70;0.20;;;26.20;99.90;;;;;;4953513;29;20487;-72
2023/08/17 13:27:30;;;;;;;0.70;0.10;;;;;;;;;;4953918;29;20483;-73
2023/08/17 13:29:58;;;;;;;0.70;0.10;;;26.20;99.90;;;;;;4953877;28;20554;-73
2023/08/17 13:32:28;;;;;;;0.60;0.20;;;26.20;99.90;;;;;;4953808;29;20454;-72
2023/08/17 13:34:57;;;;;;;0.70;0.10;;;26.30;99.90;;;;;;4953825;28;20470;-72
2023/08/17 13:37:25;;;;;;;0.70;0.10;;;26.20;99.90;;;;;;4953952;29;20881;-72
2023/08/17 13:39:53;;;;;;;0.70;0.20;;;26.20;99.90;;;;;;4953895;29;20478;-72
2023/08/17 13:42:21;;;;;;;0.60;0.10;;;26.20;99.90;;;;;;4953531;29;20545;-72
2023/08/17 13:44:49;;;;;;;1.43;1.33;;;26.00;99.90;;;;;;4953148;29;20467;-71
2023/08/17 13:47:17;;;;;;;0.70;0.20;;;26.10;99.90;;;;;;4953592;28;20961;-70
2023/08/17 13:49:46;;;;;;;0.90;0.50;;;26.10;99.90;;;;;;4954794;28;20436;-73
2023/08/17 13:52:14;;;;;;;0.70;0.20;;;26.20;99.90;;;;;;4955604;28;20490;-71
2023/08/17 13:54:42;;;;;;;0.67;0.10;;;26.40;99.90;;;;;;4956082;28;20470;-72
2023/08/17 13:57:09;;;;;;;0.70;0.10;;;26.50;99.90;;;;;;4956006;28;20507;-71
2023/08/17 13:59:37;;;;;;;0.70;0.10;;;26.60;99.90;;;;;;4955343;28;20518;-71
2023/08/17 14:02:05;;;;;;;0.70;0.10;;;26.80;99.90;;;;;;4955308;28;20551;-72
2023/08/17 14:04:33;;;;;;;0.70;0.10;;;26.90;99.90;;;;;;4955292;28;21027;-71
2023/08/17 14:07:02;;;;;;;0.70;0.10;;;27.10;99.90;;;;;;4956069;28;20879;-72
2023/08/17 14:09:31;;;;;;;0.70;0.20;;;27.10;99.90;;;;;;4955658;28;20446;-71
2023/08/17 14:11:59;;;;;;;1.80;1.70;;;27.20;99.90;;;;;;4954865;28;20868;-72
2023/08/17 14:14:28;;;;;;;0.70;0.10;;;27.30;99.90;;;;;;4954166;28;20479;-72
2023/08/17 14:16:56;;;;;;;0.70;0.10;;;28.20;99.90;;;;;;4954116;28;20480;-72
2023/08/17 14:19:24;;;;;;;0.70;0.10;;;27.20;99.90;;;;;;4953169;28;20991;-71
2023/08/17 14:21:52;;;;;;;0.70;0.10;;;27.20;99.90;;;;;;4953628;28;20543;-71
2023/08/17 14:24:21;;;;;;;0.70;0.10;;;27.30;99.90;;;;;;4953263;28;20565;-71
2023/08/17 14:26:50;;;;;;;0.70;0.20;;;27.30;99.90;;;;;;4953081;28;20514;-73
2023/08/17 14:29:18;;;;;;;0.70;0.10;;;27.30;99.90;;;;;;4953018;28;20459;-71
2023/08/17 14:31:45;;;;;;;0.93;0.47;;;27.30;99.90;;;;;;4955394;28;20871;-72
2023/08/17 14:34:15;;;;;;;0.70;0.10;;;27.40;99.90;;;;;;4956896;28;20502;-73
2023/08/17 14:36:42;;;;;;;0.70;0.20;;;27.40;99.90;;;;;;4956771;28;20450;-72
2023/08/17 14:39:12;;;;;;;0.90;0.30;;;27.40;99.90;;;;;;4957185;28;20447;-73
2023/08/17 14:41:41;;;;;;;0.70;0.10;;;27.30;99.90;;;;;;4956898;28;20472;-72
2023/08/17 14:44:13;;;;;;;0.70;0.10;;;27.40;99.90;;;;;;4956869;28;20475;-71
2023/08/17 14:46:42;;;;;;;0.70;0.10;;;27.40;99.90;;;;;;4957356;29;20598;-72
2023/08/17 14:49:10;;;;;;;0.70;0.20;;;27.40;99.90;;;;;;4956587;29;20971;-71
2023/08/17 14:51:42;;;;;;;0.80;0.20;;;27.40;99.90;;;;;;4956927;29;20537;-71
2023/08/17 14:54:11;;;;;;;0.70;0.10;;;27.40;99.90;;;;;;4956790;29;20477;-73
2023/08/17 14:56:41;;;;;;;0.70;0.10;;;27.50;99.90;;;;;;4956585;29;20447;-71
2023/08/17 14:59:09;;;;;;;0.70;0.20;;;27.50;99.90;;;;;;4956825;29;20876;-71
2023/08/17 15:01:37;;;;;;;0.70;0.10;;;27.50;99.90;;;;;;4956449;29;20455;-72
2023/08/17 15:04:06;;;;;;;0.70;0.10;;;27.50;99.90;;;;;;4957099;29;20529;-71
2023/08/17 15:06:33;;;;;;;0.70;0.10;;;27.60;99.90;;;;;;4956683;29;20520;-71
2023/08/17 15:09:04;;;;;;;0.70;0.17;;;27.60;99.90;;;;;;4957956;28;20535;-71
2023/08/17 15:11:32;;;;;;;0.70;0.43;;;27.60;99.90;;;;;;4958294;29;20837;-71
2023/08/17 15:14:01;;;;;;;0.97;0.87;;;27.70;99.90;;;;;;4957920;29;20486;-70
2023/08/17 15:16:30;;;;;;;0.80;0.37;;;27.60;99.90;;;;;;4957007;29;20501;-71
2023/08/17 15:18:58;;;;;;;0.70;0.20;;;27.70;99.90;;;;;;4957063;29;20533;-70
2023/08/17 15:21:26;;;;;;;0.70;0.10;;;27.90;99.90;;;;;;4956746;29;20452;-71
2023/08/17 15:23:54;;;;;;;0.70;0.10;;;28.00;99.90;;;;;;4956606;29;20560;-71
2023/08/17 15:26:22;;;;;;;0.70;0.20;;;28.00;99.90;;;;;;4955909;29;21113;-71
2023/08/17 15:28:50;;;;;;;0.70;0.10;;;28.10;99.90;;;;;;4956060;29;20454;-70
2023/08/17 15:31:19;;;;;;;0.70;0.40;;;28.20;99.90;;;;;;4954497;29;20458;-75
2023/08/17 15:33:47;;;;;;;10.27;9.23;;;28.80;99.90;;;;;;4956425;28;20468;-71
2023/08/17 15:36:18;;;;;;;0.80;0.30;;;28.20;99.90;;;;;;4955725;28;21165;-72
2023/08/17 15:38:46;;;;;;;0.70;0.13;;;28.20;99.90;;;;;;4955559;28;20545;-71
2023/08/17 15:41:14;;;;;;;0.70;0.10;;;28.30;99.90;;;;;;4955977;28;20452;-76
2023/08/17 15:43:41;;;;;;;0.70;0.20;;;28.30;99.90;;;;;;4954795;28;20794;-71
2023/08/17 15:46:11;;;;;;;1.13;1.03;;;28.30;99.90;;;;;;4956057;29;20558;-71
2023/08/17 15:48:40;;;;;;;0.70;0.10;;;28.10;99.90;;;;;;4955601;29;20828;-72
2023/08/17 15:51:08;;;;;;;0.70;0.20;;;28.10;99.90;;;;;;4955745;29;20481;-70
2023/08/17 15:53:39;;;;;;;0.80;0.30;;;28.20;99.90;;;;;;4954893;29;20573;-73
2023/08/17 15:56:07;;;;;;;0.70;0.10;;;28.00;99.90;;;;;;4955808;29;20519;-72
2023/08/17 15:58:35;;;;;;;0.70;0.20;;;28.00;99.90;;;;;;4955628;29;20459;-73
2023/08/17 16:01:03;;;;;;;0.93;0.70;;;27.90;99.90;;;;;;4955600;29;20459;-74
2023/08/17 16:03:31;;;;;;;0.70;0.20;;;28.00;99.90;;;;;;4955110;29;21048;-73
2023/08/17 16:06:00;;;;;;;0.90;0.50;;;28.00;99.90;;;;;;4955102;29;20454;-71
2023/08/17 16:08:28;;;;;;;1.53;0.60;;;28.20;99.90;;;;;;4954606;28;20885;-70
2023/08/17 16:11:15;;;;;;;0.70;0.20;;;28.30;99.90;;;;;;4955456;28;20480;-69
2023/08/17 16:13:44;;;;;;;0.70;0.10;;;28.40;99.90;;;;;;4955114;29;20955;-73
2023/08/17 16:16:14;;;;;;;0.70;0.30;;;28.50;99.90;;;;;;4954865;29;20538;-71
2023/08/17 16:18:42;;;;;;;0.70;0.20;;;28.50;99.90;;;;;;4954689;29;20954;-71
2023/08/17 16:21:11;;;;;;;0.70;0.10;;;28.50;99.90;;;;;;4954827;29;20544;-72
2023/08/17 16:23:42;;;;;;;0.70;0.20;;;25.90;99.90;;;;;;4954895;29;20469;-72
2023/08/17 16:26:10;;;;;;;0.70;0.20;;;28.60;99.90;;;;;;4954401;29;20537;-72
2023/08/17 16:28:38;;;;;;;0.70;0.20;;;28.50;99.90;;;;;;4954769;28;20449;-72
2023/08/17 16:31:06;;;;;;;0.70;0.17;;;28.40;99.90;;;;;;4954540;29;20488;-72
2023/08/17 16:33:34;;;;;;;1.00;0.63;;;28.40;99.90;;;;;;4954572;29;21230;-74
2023/08/17 16:36:02;;;;;;;0.70;0.20;;;28.40;99.90;;;;;;4954612;29;20460;-72
2023/08/17 16:38:32;;;;;;;2.67;2.47;;;28.50;99.90;;;;;;4954101;29;20543;-72
2023/08/17 16:40:59;;;;;;;0.70;0.17;;;28.50;99.90;;;;;;4954207;29;20489;-73
2023/08/17 16:43:27;;;;;;;0.80;0.33;;;28.80;99.90;;;;;;4954078;29;20505;-74
2023/08/17 16:45:55;;;;;;;0.80;0.73;;;28.80;99.90;;;;;;4953948;28;20541;-70
2023/08/17 16:48:23;;;;;;;0.70;0.10;;;29.00;99.90;;;;;;4954668;28;20996;-70
2023/08/17 16:50:52;;;;;;;0.70;0.20;;;29.20;99.90;;;;;;4954297;28;20470;-69
2023/08/17 16:53:20;;;;;;;0.70;0.20;;;29.10;99.90;;;;;;4953612;28;20500;-70
2023/08/17 16:55:49;;;;;;;0.70;0.30;;;29.10;99.90;;;;;;4953998;28;20457;-69
2023/08/17 16:58:20;;;;;;;0.80;0.30;;;29.10;99.90;;;;;;4954068;28;20872;-70
2023/08/17 17:00:48;;;;;;;0.70;0.10;;;29.10;99.90;;;;;;4954293;28;20549;-70
2023/08/17 17:03:16;;;;;;;0.90;0.30;;;28.90;99.90;;;;;;4954354;28;20991;-71
2023/08/17 17:05:43;;;;;;;0.70;0.10;;;28.80;99.90;;;;;;4954976;28;20602;-71